Time;durP1;ratioP1;P1;durP2;ratioP2;P2;SDS_P1;SDS_P2;PMS_P1;PMS_P2;Temp;Humidity;BMP_temperature;BMP_pressure;BME280_temperature;BME280_humidity;BME280_pressure;Samples;Min_cycle;Max_cycle;Signal;HPM_P1;HPM_P2
2022/05/24 00:00:08;;;;;;;9.10;2.53;;;;;;;;;;5033865;28;20036;-66
2022/05/24 00:02:34;;;;;;;10.73;2.80;;;;;;;;;;5034180;28;20560;-66
2022/05/24 00:05:01;;;;;;;10.50;2.60;;;;;;;;;;5033685;28;20474;-66
2022/05/24 00:07:27;;;;;;;9.73;2.72;;;;;;;;;;5033409;28;20101;-66
2022/05/24 00:09:53;;;;;;;12.57;2.60;;;;;;;;;;5018169;28;20080;-66
2022/05/24 00:12:19;;;;;;;10.02;2.42;;;;;;;;;;5033162;28;20481;-66
2022/05/24 00:17:30;;;;;;;10.63;2.55;;;;;;;;;;5035677;28;20117;-66
2022/05/24 00:19:57;;;;;;;7.88;2.40;;;;;;;;;;5034645;28;20401;-66
2022/05/24 00:22:23;;;;;;;8.65;2.40;;;;;;;;;;5033870;28;20088;-66
2022/05/24 00:24:49;;;;;;;13.20;3.13;;;;;;;;;;5032278;28;20044;-66
2022/05/24 00:27:15;;;;;;;8.75;2.45;;;;;;;;;;5032580;28;20046;-66
2022/05/24 00:29:41;;;;;;;11.27;2.50;;;;;;;;;;5033542;28;20116;-66
2022/05/24 00:32:08;;;;;;;11.02;2.72;;;;;;;;;;5034799;28;20021;-66
2022/05/24 00:34:34;;;;;;;9.25;2.55;;;;;;;;;;5032733;28;20505;-66
2022/05/24 00:37:00;;;;;;;7.97;2.25;;;;;;;;;;5032979;28;20028;-66
2022/05/24 00:39:26;;;;;;;11.57;2.95;;;;;;;;;;5032578;28;20032;-66
2022/05/24 00:41:55;;;;;;;8.50;2.35;;;;;;;;;;5034903;28;20029;-66
2022/05/24 00:44:24;;;;;;;11.68;2.60;;;;;;;;;;5033199;28;20060;-66
2022/05/24 00:47:19;;;;;;;14.63;2.80;;;;;;;;;;5033115;28;20048;-66
2022/05/24 00:49:49;;;;;;;10.75;2.83;;;;;;;;;;5020066;28;20041;-67
2022/05/24 00:52:17;;;;;;;11.32;2.70;;;;;;;;;;5033249;28;20037;-67
2022/05/24 00:54:44;;;;;;;10.38;2.65;;;;;;;;;;5032639;28;20105;-67
2022/05/24 00:57:13;;;;;;;6.45;2.30;;;;;;;;;;5034123;28;20471;-66
2022/05/24 00:59:45;;;;;;;7.75;2.35;;;;;;;;;;5034308;28;20025;-66
2022/05/24 01:02:11;;;;;;;11.13;2.90;;;;;;;;;;5032164;28;20037;-66
2022/05/24 01:04:38;;;;;;;12.95;2.40;;;;;;;;;;5032892;28;20099;-66
2022/05/24 01:07:04;;;;;;;16.05;3.45;;;;;;;;;;5031683;28;20405;-66
2022/05/24 01:09:50;;;;;;;9.75;2.70;;;;;;;;;;5031568;28;20058;-66
2022/05/24 01:12:20;;;;;;;12.85;3.10;;;;;;;;;;5032962;28;20083;-66
2022/05/24 01:14:47;;;;;;;12.73;2.55;;;;;;;;;;5032380;28;20108;-66
2022/05/24 01:17:13;;;;;;;10.52;2.42;;;;;;;;;;5032370;28;20463;-66
2022/05/24 01:19:43;;;;;;;8.68;2.45;;;;;;;;;;5031829;28;20424;-66
2022/05/24 01:22:28;;;;;;;10.65;2.58;;;;;;;;;;5032311;28;20079;-66
2022/05/24 01:25:00;;;;;;;15.05;2.90;;;;;;;;;;5016861;28;20028;-66
2022/05/24 01:27:26;;;;;;;10.68;2.85;;;;;;;;;;5027625;28;20037;-66
2022/05/24 01:29:52;;;;;;;7.88;2.38;;;;;;;;;;5034167;28;20037;-66
2022/05/24 01:37:48;;;;;;;9.07;2.40;;;;;;;;;;5033814;28;20040;-67
2022/05/24 01:40:15;;;;;;;6.88;2.40;;;;;;;;;;5034435;28;20052;-66
2022/05/24 01:42:41;;;;;;;11.35;2.10;;;;;;;;;;5032944;28;20057;-66
2022/05/24 01:45:13;;;;;;;9.07;2.28;;;;;;;;;;5031937;28;20021;-66
2022/05/24 01:47:40;;;;;;;10.70;2.45;;;;;;;;;;5032107;28;20041;-66
2022/05/24 01:50:08;;;;;;;9.75;2.03;;;;;;;;;;5037616;28;20115;-66
2022/05/24 01:52:40;;;;;;;8.18;2.55;;;;;;;;;;5036084;28;20023;-66
2022/05/24 01:55:12;;;;;;;11.70;2.67;;;;;;;;;;5036643;28;20030;-66
2022/05/24 01:57:42;;;;;;;12.50;2.70;;;;;;;;;;5036278;28;20397;-67
2022/05/24 02:00:09;;;;;;;12.82;2.42;;;;;;;;;;5033346;28;20037;-66
2022/05/24 02:02:35;;;;;;;10.35;2.63;;;;;;;;;;5036194;28;20040;-66
2022/05/24 02:05:01;;;;;;;10.00;2.50;;;;;;;;;;5036230;28;20383;-66
2022/05/24 02:07:28;;;;;;;10.23;2.40;;;;;;;;;;5036281;28;20482;-66
2022/05/24 02:09:55;;;;;;;11.18;2.67;;;;;;;;;;5036379;28;20036;-67
2022/05/24 02:12:37;;;;;;;8.90;2.80;;;;;;;;;;5035449;28;20025;-66
2022/05/24 02:15:10;;;;;;;11.35;2.60;;;;;;;;;;5036825;28;20033;-66
2022/05/24 02:17:39;;;;;;;;;;;;;;;;;;5037436;28;20412;-66
2022/05/24 02:20:05;;;;;;;10.80;2.28;;;;;;;;;;5035722;28;19916;-66
2022/05/24 02:22:32;;;;;;;9.65;2.40;;;;;;;;;;5035885;28;20393;-66
2022/05/24 02:25:20;;;;;;;10.70;2.63;;;;;;;;;;5034571;28;20040;-66
2022/05/24 02:27:47;;;;;;;10.50;2.55;;;;;;;;;;5035436;28;20083;-66
2022/05/24 02:30:14;;;;;;;9.27;2.22;;;;;;;;;;5036183;28;20030;-66
2022/05/24 02:32:40;;;;;;;8.88;2.35;;;;;;;;;;5035650;28;20037;-66
2022/05/24 02:35:07;;;;;;;5.80;2.10;;;;;;;;;;5035670;28;20029;-66
2022/05/24 02:37:33;;;;;;;10.80;2.45;;;;;;;;;;5035698;28;20683;-66
2022/05/24 02:42:44;;;;;;;9.55;2.30;;;;;;;;;;5035259;28;20132;-66
2022/05/24 02:45:10;;;;;;;9.82;2.30;;;;;;;;;;5051383;28;20119;-66
2022/05/24 02:47:36;;;;;;;8.70;2.13;;;;;;;;;;5035237;28;20037;-66
2022/05/24 02:50:03;;;;;;;8.35;2.15;;;;;;;;;;5035635;28;20033;-66
2022/05/24 02:52:30;;;;;;;7.43;2.00;;;;;;;;;;5036817;28;20033;-66
2022/05/24 02:54:56;;;;;;;7.53;2.00;;;;;;;;;;5036956;28;20511;-66
2022/05/24 02:57:23;;;;;;;8.23;1.95;;;;;;;;;;5030895;28;20029;-66
2022/05/24 02:59:49;;;;;;;10.55;2.10;;;;;;;;;;5033891;28;20085;-66
2022/05/24 03:02:15;;;;;;;12.60;2.10;;;;;;;;;;5034853;28;20045;-66
2022/05/24 03:04:42;;;;;;;8.38;2.13;;;;;;;;;;5035251;28;20086;-66
2022/05/24 03:09:53;;;;;;;8.90;1.95;;;;;;;;;;5035013;28;20194;-66
2022/05/24 03:15:05;;;;;;;6.07;1.83;;;;;;;;;;5036561;28;20068;-66
2022/05/24 03:17:31;;;;;;;13.02;1.83;;;;;;;;;;5034670;28;20456;-66
2022/05/24 03:19:58;;;;;;;7.88;1.85;;;;;;;;;;5034585;28;20037;-66
2022/05/24 03:22:24;;;;;;;8.43;1.75;;;;;;;;;;5034923;28;20511;-66
2022/05/24 03:24:50;;;;;;;5.13;1.52;;;;;;;;;;5034635;28;20509;-66
2022/05/24 03:27:16;;;;;;;10.00;1.80;;;;;;;;;;5033980;28;20041;-66
2022/05/24 03:29:42;;;;;;;6.78;2.05;;;;;;;;;;5033253;28;20068;-66
2022/05/24 03:32:09;;;;;;;9.02;1.70;;;;;;;;;;5033290;28;20037;-66
2022/05/24 03:34:36;;;;;;;8.15;1.83;;;;;;;;;;5035957;28;20095;-66
2022/05/24 03:37:02;;;;;;;9.43;1.70;;;;;;;;;;5034252;28;20030;-66
2022/05/24 03:39:28;;;;;;;11.38;1.98;;;;;;;;;;5032665;28;20399;-66
2022/05/24 03:41:55;;;;;;;7.65;1.70;;;;;;;;;;5034358;28;20025;-66
2022/05/24 03:44:21;;;;;;;8.25;2.60;;;;;;;;;;5034333;28;20045;-66
2022/05/24 03:46:47;;;;;;;9.07;1.63;;;;;;;;;;5035516;28;20038;-66
2022/05/24 03:49:16;;;;;;;10.13;2.00;;;;;;;;;;5034637;28;20048;-66
2022/05/24 03:51:42;;;;;;;7.72;1.65;;;;;;;;;;5032963;28;20086;-66
2022/05/24 03:54:08;;;;;;;10.07;2.70;;;;;;;;;;5028972;28;20038;-66
2022/05/24 03:56:35;;;;;;;6.75;1.80;;;;;;;;;;5024736;28;20551;-66
2022/05/24 03:59:01;;;;;;;10.60;2.10;;;;;;;;;;5027622;28;20044;-66
2022/05/24 04:01:27;;;;;;;7.63;1.70;;;;;;;;;;5034157;28;20037;-66
2022/05/24 04:03:54;;;;;;;6.18;1.25;;;;;;;;;;5018290;28;20025;-66
2022/05/24 04:06:20;;;;;;;6.13;1.45;;;;;;;;;;5033095;28;20032;-66
2022/05/24 04:08:46;;;;;;;5.43;0.93;;;;;;;;;;5034027;28;20052;-66
2022/05/24 04:11:13;;;;;;;3.00;0.82;;;;;;;;;;5034692;28;20029;-66
2022/05/24 04:13:41;;;;;;;1.52;0.80;;;;;;;;;;5034349;28;20047;-66
2022/05/24 04:16:07;;;;;;;3.55;0.80;;;;;;;;;;5032340;28;20064;-66
2022/05/24 04:18:34;;;;;;;2.05;0.70;;;;;;;;;;5032880;28;20017;-66
2022/05/24 04:21:00;;;;;;;3.92;0.90;;;;;;;;;;5033593;28;20438;-66
2022/05/24 04:23:26;;;;;;;2.08;0.63;;;;;;;;;;5032448;28;20057;-66
2022/05/24 04:25:53;;;;;;;4.68;0.90;;;;;;;;;;5034585;28;20021;-66
2022/05/24 04:28:20;;;;;;;2.67;0.95;;;;;;;;;;5033346;28;20041;-66
2022/05/24 04:30:50;;;;;;;4.55;0.80;;;;;;;;;;5033539;28;20820;-66
2022/05/24 04:33:17;;;;;;;2.90;1.00;;;;;;;;;;5032530;28;20036;-66
2022/05/24 04:35:46;;;;;;;3.20;0.60;;;;;;;;;;5032597;28;20033;-66
2022/05/24 04:38:12;;;;;;;0.43;0.35;;;;;;;;;;5033398;28;20034;-66
2022/05/24 04:43:23;;;;;;;2.85;0.60;;;;;;;;;;5033288;28;20076;-66
2022/05/24 04:46:02;;;;;;;4.00;1.10;;;;;;;;;;5028684;28;20039;-66
2022/05/24 04:48:28;;;;;;;3.70;0.70;;;;;;;;;;5016811;28;20088;-66
2022/05/24 04:50:55;;;;;;;2.67;0.65;;;;;;;;;;5049961;28;20029;-66
2022/05/24 04:53:22;;;;;;;3.75;0.60;;;;;;;;;;5033458;28;20030;-66
2022/05/24 04:55:49;;;;;;;5.82;1.17;;;;;;;;;;5031289;28;21925;-66
2022/05/24 04:58:18;;;;;;;7.82;1.50;;;;;;;;;;5031186;28;20087;-66
2022/05/24 05:00:45;;;;;;;7.85;1.30;;;;;;;;;;5030358;28;20037;-67
2022/05/24 05:03:12;;;;;;;3.22;1.05;;;;;;;;;;5028566;28;20088;-69
2022/05/24 05:05:38;;;;;;;4.85;1.15;;;;;;;;;;5030954;28;20059;-70
2022/05/24 05:08:05;;;;;;;5.60;0.80;;;;;;;;;;5031516;28;20080;-70
2022/05/24 05:10:34;;;;;;;1.13;0.68;;;;;;;;;;5029201;28;20033;-68
2022/05/24 05:13:00;;;;;;;2.17;0.63;;;;;;;;;;5029574;28;20548;-67
2022/05/24 05:15:26;;;;;;;2.78;0.75;;;;;;;;;;5030095;28;21560;-67
2022/05/24 05:17:57;;;;;;;3.53;0.80;;;;;;;;;;5020173;28;20192;-67
2022/05/24 05:20:23;;;;;;;5.07;1.00;;;;;;;;;;5026022;28;20037;-67
2022/05/24 05:22:49;;;;;;;5.00;0.85;;;;;;;;;;5028028;28;20043;-67
2022/05/24 05:25:15;;;;;;;6.45;0.93;;;;;;;;;;5028291;28;20033;-68
2022/05/24 05:27:41;;;;;;;8.90;1.27;;;;;;;;;;5031396;28;20043;-68
2022/05/24 05:33:10;;;;;;;7.63;1.02;;;;;;;;;;5008893;28;20037;-68
2022/05/24 05:35:36;;;;;;;6.30;1.20;;;;;;;;;;5007134;28;20049;-68
2022/05/24 05:38:02;;;;;;;3.55;0.80;;;;;;;;;;5006580;28;20032;-67
2022/05/24 05:40:29;;;;;;;9.45;1.70;;;;;;;;;;4988419;28;20082;-68
2022/05/24 05:42:55;;;;;;;4.60;1.00;;;;;;;;;;4991695;28;20029;-68
2022/05/24 05:45:21;;;;;;;4.68;0.90;;;;;;;;;;5007155;28;20579;-70
2022/05/24 05:47:48;;;;;;;5.55;1.33;;;;;;;;;;5006091;28;20129;-69
2022/05/24 05:50:14;;;;;;;3.72;0.93;;;;;;;;;;5007456;28;20525;-70
2022/05/24 05:52:41;;;;;;;5.82;1.17;;;;;;;;;;5006333;28;20482;-69
2022/05/24 05:55:07;;;;;;;5.53;1.00;;;;;;;;;;5007472;28;20174;-69
2022/05/24 05:57:33;;;;;;;3.17;1.00;;;;;;;;;;5006473;28;20041;-68
2022/05/24 05:59:59;;;;;;;5.20;1.08;;;;;;;;;;5008521;28;20046;-72
2022/05/24 06:02:25;;;;;;;6.30;0.95;;;;;;;;;;5008394;28;20042;-70
2022/05/24 06:04:52;;;;;;;5.18;1.10;;;;;;;;;;5007369;28;20108;-70
2022/05/24 06:07:18;;;;;;;5.75;1.10;;;;;;;;;;5017726;28;20130;-71
2022/05/24 06:09:44;;;;;;;10.27;1.10;;;;;;;;;;5032284;28;20064;-70
2022/05/24 06:12:12;;;;;;;7.43;1.10;;;;;;;;;;5032688;28;20037;-70
2022/05/24 06:14:38;;;;;;;6.35;1.25;;;;;;;;;;5029687;28;20022;-72
2022/05/24 06:17:05;;;;;;;4.55;1.10;;;;;;;;;;5033508;28;20030;-70
2022/05/24 06:19:32;;;;;;;4.20;0.80;;;;;;;;;;5034076;28;20029;-70
2022/05/24 06:21:58;;;;;;;9.02;1.13;;;;;;;;;;5033175;28;20032;-70
2022/05/24 06:24:24;;;;;;;6.57;1.52;;;;;;;;;;5030995;28;20119;-70
2022/05/24 06:26:50;;;;;;;6.63;0.82;;;;;;;;;;5028970;28;20060;-71
2022/05/24 06:29:17;;;;;;;11.18;1.20;;;;;;;;;;5033116;28;20183;-70
2022/05/24 06:31:44;;;;;;;8.02;1.00;;;;;;;;;;5029713;28;20033;-70
2022/05/24 06:34:11;;;;;;;6.97;1.05;;;;;;;;;;5032946;28;20113;-70
2022/05/24 06:36:37;;;;;;;9.20;1.13;;;;;;;;;;5031080;28;20082;-70
2022/05/24 06:39:04;;;;;;;6.03;1.00;;;;;;;;;;5036914;28;20033;-70
2022/05/24 06:41:30;;;;;;;6.60;1.00;;;;;;;;;;5037282;28;20034;-70
2022/05/24 06:43:56;;;;;;;7.90;1.23;;;;;;;;;;5033612;28;20543;-70
2022/05/24 06:46:22;;;;;;;6.85;1.13;;;;;;;;;;5031506;28;20086;-70
2022/05/24 06:48:50;;;;;;;2.17;0.80;;;;;;;;;;5034578;28;20039;-70
2022/05/24 06:51:20;;;;;;;10.18;1.45;;;;;;;;;;5031992;28;20398;-70
2022/05/24 06:53:47;;;;;;;6.32;1.08;;;;;;;;;;5027554;28;20036;-70
2022/05/24 06:56:14;;;;;;;5.10;1.20;;;;;;;;;;5031432;28;20029;-70
2022/05/24 06:58:40;;;;;;;5.00;0.93;;;;;;;;;;5033113;28;20059;-70
2022/05/24 07:03:53;;;;;;;8.10;1.50;;;;;;;;;;5034752;28;20106;-71
2022/05/24 07:06:19;;;;;;;7.63;1.60;;;;;;;;;;5033815;28;20079;-70
2022/05/24 07:08:46;;;;;;;4.57;1.15;;;;;;;;;;5033709;28;20547;-70
2022/05/24 07:11:13;;;;;;;4.13;1.20;;;;;;;;;;5033826;28;20041;-70
2022/05/24 07:13:39;;;;;;;5.30;1.20;;;;;;;;;;5033881;28;20026;-70
2022/05/24 07:16:07;;;;;;;6.00;1.13;;;;;;;;;;5034361;28;20414;-70
2022/05/24 07:18:34;;;;;;;5.22;1.00;;;;;;;;;;5033863;28;20037;-70
2022/05/24 07:21:00;;;;;;;4.55;1.20;;;;;;;;;;5032912;28;20025;-70
2022/05/24 07:23:26;;;;;;;6.32;1.30;;;;;;;;;;5033912;28;20047;-70
2022/05/24 07:25:54;;;;;;;3.80;1.17;;;;;;;;;;5035382;28;20455;-70
2022/05/24 07:28:21;;;;;;;7.53;1.38;;;;;;;;;;5023211;28;20065;-70
2022/05/24 07:30:47;;;;;;;6.82;1.35;;;;;;;;;;5034454;28;20464;-71
2022/05/24 07:33:14;;;;;;;2.95;1.00;;;;;;;;;;5032680;28;20477;-71
2022/05/24 07:35:41;;;;;;;4.82;1.10;;;;;;;;;;5032112;28;20032;-71
2022/05/24 07:38:08;;;;;;;6.40;1.20;;;;;;;;;;5032906;28;20075;-72
2022/05/24 07:46:06;;;;;;;4.22;1.10;;;;;;;;;;5039065;28;20036;-74
2022/05/24 07:48:34;;;;;;;4.30;1.08;;;;;;;;;;5052512;28;20069;-77
2022/05/24 07:51:00;;;;;;;3.22;1.15;;;;;;;;;;5053303;28;20126;-78
2022/05/24 07:53:27;;;;;;;5.88;1.15;;;;;;;;;;5052772;28;20075;-77
2022/05/24 07:55:56;;;;;;;4.97;1.20;;;;;;;;;;5054834;28;20049;-77
2022/05/24 07:58:22;;;;;;;3.83;1.05;;;;;;;;;;5052910;28;20584;-77
2022/05/24 08:00:48;;;;;;;3.70;1.02;;;;;;;;;;5053033;28;20045;-76
2022/05/24 08:03:14;;;;;;;4.70;1.00;;;;;;;;;;5050948;28;20401;-77
2022/05/24 08:05:41;;;;;;;5.22;1.33;;;;;;;;;;5056228;28;20388;-77
2022/05/24 08:08:08;;;;;;;5.10;1.17;;;;;;;;;;5054115;28;20045;-77
2022/05/24 08:10:35;;;;;;;4.10;1.10;;;;;;;;;;5051822;28;20075;-77
2022/05/24 08:13:04;;;;;;;3.58;1.10;;;;;;;;;;5053021;28;20051;-84
2022/05/24 08:15:30;;;;;;;3.45;1.20;;;;;;;;;;5052007;28;20020;-76
2022/05/24 08:17:56;;;;;;;3.65;1.17;;;;;;;;;;5051312;28;20546;-76
2022/05/24 08:20:23;;;;;;;3.83;1.23;;;;;;;;;;5054489;28;20029;-76
2022/05/24 08:22:49;;;;;;;6.70;1.20;;;;;;;;;;5051800;28;20029;-76
2022/05/24 08:25:15;;;;;;;8.60;1.20;;;;;;;;;;5048978;28;20025;-76
2022/05/24 08:27:42;;;;;;;5.15;1.40;;;;;;;;;;5054608;28;20106;-76
2022/05/24 08:30:09;;;;;;;4.90;1.23;;;;;;;;;;5045806;28;20037;-76
2022/05/24 08:32:35;;;;;;;5.13;1.00;;;;;;;;;;5044297;28;20041;-77
2022/05/24 08:35:01;;;;;;;3.75;1.00;;;;;;;;;;5045560;28;20031;-76
2022/05/24 08:37:29;;;;;;;6.95;1.50;;;;;;;;;;5044148;28;20378;-77
2022/05/24 08:39:57;;;;;;;3.72;1.27;;;;;;;;;;5046300;28;20526;-76
2022/05/24 08:42:23;;;;;;;2.70;0.98;;;;;;;;;;5048523;28;20041;-76
2022/05/24 08:50:30;;;;;;;6.28;1.10;;;;;;;;;;5044405;28;20401;-76
2022/05/24 08:52:59;;;;;;;4.55;0.90;;;;;;;;;;5044574;28;20111;-77
2022/05/24 08:55:27;;;;;;;6.25;1.10;;;;;;;;;;5046118;28;20067;-77
2022/05/24 08:57:55;;;;;;;3.83;1.13;;;;;;;;;;5044637;28;20495;-77
2022/05/24 09:00:24;;;;;;;5.03;1.27;;;;;;;;;;5047544;28;20037;-77
2022/05/24 09:02:50;;;;;;;4.65;1.25;;;;;;;;;;5043702;28;20024;-77
2022/05/24 09:05:25;;;;;;;8.30;1.20;;;;;;;;;;5045743;28;20493;-77
2022/05/24 09:08:18;;;;;;;4.68;1.05;;;;;;;;;;5045961;28;20648;-77
2022/05/24 09:10:53;;;;;;;5.03;1.13;;;;;;;;;;4996089;28;20065;-76
2022/05/24 09:13:40;;;;;;;4.38;1.20;;;;;;;;;;5004787;28;20347;-73
2022/05/24 09:16:08;;;;;;;4.68;1.23;;;;;;;;;;4926904;29;20557;-76
2022/05/24 09:18:36;;;;;;;4.40;1.20;;;;;;;;;;4926438;29;20556;-77
2022/05/24 09:21:02;;;;;;;6.40;1.20;;;;;;;;;;4925467;29;20508;-77
2022/05/24 09:23:39;;;;;;;8.35;1.60;;;;;;;;;;4922959;29;20571;-77
2022/05/24 09:26:10;;;;;;;2.78;1.02;;;;;;;;;;4922882;29;20521;-77
2022/05/24 09:28:45;;;;;;;5.55;1.20;;;;;;;;;;4927761;29;20051;-77
2022/05/24 09:31:17;;;;;;;3.38;0.80;;;;;;;;;;4927024;29;20035;-77
2022/05/24 09:33:44;;;;;;;5.78;0.93;;;;;;;;;;4927889;29;20136;-77
2022/05/24 09:36:23;;;;;;;3.70;1.08;;;;;;;;;;4926034;29;20031;-77
2022/05/24 09:38:49;;;;;;;5.40;1.20;;;;;;;;;;4926591;29;20035;-77
2022/05/24 09:41:24;;;;;;;2.67;0.90;;;;;;;;;;4926345;29;20051;-78
2022/05/24 09:43:58;;;;;;;2.00;0.82;;;;;;;;;;4924383;29;20576;-78
2022/05/24 09:46:26;;;;;;;3.42;1.02;;;;;;;;;;4918094;29;20044;-77
2022/05/24 09:48:58;;;;;;;3.67;1.10;;;;;;;;;;4962733;28;20039;-77
2022/05/24 09:51:41;;;;;;;4.30;1.23;;;;;;;;;;4965020;28;20055;-77
2022/05/24 09:54:13;;;;;;;4.40;1.17;;;;;;;;;;5047946;28;20160;-78
2022/05/24 09:56:40;;;;;;;2.95;1.45;;;;;;;;;;5049170;28;20021;-78
2022/05/24 09:59:23;;;;;;;3.97;1.13;;;;;;;;;;5048481;28;20036;-77
2022/05/24 10:01:50;;;;;;;2.80;1.00;;;;;;;;;;5045516;28;20100;-78
2022/05/24 10:04:21;;;;;;;4.07;0.82;;;;;;;;;;5045793;28;20036;-78
2022/05/24 10:06:55;;;;;;;4.05;1.00;;;;;;;;;;5045691;28;20353;-77
2022/05/24 10:09:21;;;;;;;4.40;1.25;;;;;;;;;;5050563;28;20040;-78
2022/05/24 10:11:53;;;;;;;2.72;0.82;;;;;;;;;;5050850;28;20044;-77
2022/05/24 10:14:41;;;;;;;6.93;1.30;;;;;;;;;;5051623;28;20535;-78
2022/05/24 10:17:07;;;;;;;3.80;1.30;;;;;;;;;;5051046;28;20032;-79
2022/05/24 10:19:33;;;;;;;3.20;1.40;;;;;;;;;;5045640;28;20043;-75
2022/05/24 10:22:34;;;;;;;4.25;0.90;;;;;;;;;;5047248;28;20021;-77
2022/05/24 10:25:03;;;;;;;4.10;1.10;;;;;;;;;;5001815;23;20152;-71
2022/05/24 10:27:39;;;;;;;2.50;0.98;;;;;;;;;;5008415;28;20101;-71
2022/05/24 10:30:08;;;;;;;4.68;1.00;;;;;;;;;;5011942;28;20125;-71
2022/05/24 10:38:37;;;;;;;4.57;1.17;;;;;;;;;;5010825;28;20664;-70
2022/05/24 10:41:07;;;;;;;3.80;1.05;;;;;;;;;;5011214;28;20041;-70
2022/05/24 10:43:41;;;;;;;3.28;1.00;;;;;;;;;;5011494;28;20021;-71
2022/05/24 10:46:12;;;;;;;6.47;1.40;;;;;;;;;;5011138;28;20075;-71
2022/05/24 10:48:50;;;;;;;4.60;1.00;;;;;;;;;;5011767;28;20061;-71
2022/05/24 10:51:19;;;;;;;3.13;1.00;;;;;;;;;;5012010;28;20129;-70
2022/05/24 10:53:54;;;;;;;2.85;0.98;;;;;;;;;;5009673;28;20022;-72
2022/05/24 10:56:40;;;;;;;2.70;1.00;;;;;;;;;;4991972;28;20505;-72
2022/05/24 10:59:15;;;;;;;5.20;1.10;;;;;;;;;;5011803;28;20038;-73
2022/05/24 11:01:45;;;;;;;3.42;0.90;;;;;;;;;;5015332;28;20033;-73
2022/05/24 11:04:17;;;;;;;3.90;1.10;;;;;;;;;;5012404;28;20041;-72
2022/05/24 11:06:52;;;;;;;6.00;1.23;;;;;;;;;;5012532;28;20034;-73
2022/05/24 11:09:19;;;;;;;6.10;1.17;;;;;;;;;;5011146;28;20261;-72
2022/05/24 11:11:56;;;;;;;3.92;0.90;;;;;;;;;;5014785;28;20042;-73
2022/05/24 11:14:28;;;;;;;5.80;1.25;;;;;;;;;;5012258;28;20037;-72
2022/05/24 11:16:55;;;;;;;4.05;1.13;;;;;;;;;;5011390;28;20029;-73
2022/05/24 11:19:23;;;;;;;3.42;1.23;;;;;;;;;;4994267;28;20080;-71
2022/05/24 11:21:49;;;;;;;4.13;1.00;;;;;;;;;;5012514;28;20046;-73
2022/05/24 11:24:21;;;;;;;2.63;0.85;;;;;;;;;;5013453;28;20033;-71
2022/05/24 11:26:53;;;;;;;3.63;0.90;;;;;;;;;;5010516;28;20061;-71
2022/05/24 11:29:29;;;;;;;12.70;1.27;;;;;;;;;;5010548;28;20045;-73
2022/05/24 11:32:01;;;;;;;10.20;2.60;;;;;;;;;;4992911;28;20405;-74
2022/05/24 11:34:30;;;;;;;6.10;1.10;;;;;;;;;;4998950;28;20022;-73
2022/05/24 11:37:28;;;;;;;6.75;1.08;;;;;;;;;;5015205;28;20288;-71
2022/05/24 11:39:54;;;;;;;5.65;0.80;;;;;;;;;;4912276;29;20560;-73
2022/05/24 11:42:21;;;;;;;4.72;0.80;;;;;;;;;;4914656;29;20107;-77
2022/05/24 11:44:47;;;;;;;4.82;1.45;;;;;;;;;;4908164;29;20046;-76
2022/05/24 11:47:32;;;;;;;4.25;1.02;;;;;;;;;;4911372;29;20100;-77
2022/05/24 11:50:00;;;;;;;4.53;0.98;;;;;;;;;;4915339;29;20044;-75
2022/05/24 11:52:46;;;;;;;7.43;1.05;;;;;;;;;;4910340;29;20080;-76
2022/05/24 11:55:32;;;;;;;14.77;1.60;;;;;;;;;;4914998;29;20124;-72
2022/05/24 11:58:04;;;;;;;3.67;0.77;;;;;;;;;;4900599;29;20044;-72
2022/05/24 12:00:32;;;;;;;7.83;2.10;;;;;;;;;;4922286;29;20028;-73
2022/05/24 12:08:36;;;;;;;5.82;1.08;;;;;;;;;;4918280;29;20135;-75
2022/05/24 12:11:05;;;;;;;3.95;0.93;;;;;;;;;;4914031;29;20115;-74
2022/05/24 12:13:38;;;;;;;5.55;1.10;;;;;;;;;;4914123;29;20513;-76
2022/05/24 12:16:24;;;;;;;5.53;0.80;;;;;;;;;;4980006;28;20037;-72
2022/05/24 12:18:55;;;;;;;3.40;0.80;;;;;;;;;;4908140;29;20473;-72
2022/05/24 12:21:41;;;;;;;4.07;1.30;;;;;;;;;;4909073;29;20048;-72
2022/05/24 12:24:23;;;;;;;7.85;1.10;;;;;;;;;;4829922;29;20136;-74
2022/05/24 12:27:19;;;;;;;2.13;0.80;;;;;;;;;;4827322;29;20174;-74
2022/05/24 12:29:47;;;;;;;2.97;0.90;;;;;;;;;;4836324;29;20053;-74
2022/05/24 12:32:16;;;;;;;2.20;0.95;;;;;;;;;;4839705;29;20056;-73
2022/05/24 12:34:42;;;;;;;3.15;0.88;;;;;;;;;;4847519;29;20514;-74
2022/05/24 12:37:27;;;;;;;4.68;1.00;;;;;;;;;;4835413;29;20050;-74
2022/05/24 12:40:14;;;;;;;4.35;0.90;;;;;;;;;;4835453;29;20062;-71
2022/05/24 12:42:47;;;;;;;3.20;0.90;;;;;;;;;;4849390;29;20046;-71
2022/05/24 12:45:15;;;;;;;4.93;1.02;;;;;;;;;;4841990;29;20530;-71
2022/05/24 12:47:42;;;;;;;3.65;1.17;;;;;;;;;;4842389;29;20057;-72
2022/05/24 12:50:08;;;;;;;5.43;1.10;;;;;;;;;;5163733;23;20056;-74
2022/05/24 12:52:42;;;;;;;4.30;0.90;;;;;;;;;;5052795;28;20029;-74
2022/05/24 12:55:09;;;;;;;9.98;1.10;;;;;;;;;;5050999;28;20398;-74
2022/05/24 12:57:40;;;;;;;3.38;1.00;;;;;;;;;;5049714;28;20028;-74
2022/05/24 13:00:09;;;;;;;5.43;1.02;;;;;;;;;;5052482;28;20055;-74
2022/05/24 13:02:35;;;;;;;3.20;0.90;;;;;;;;;;5051703;28;20025;-74
2022/05/24 13:05:12;;;;;;;4.38;1.27;;;;;;;;;;5052114;28;20112;-74
2022/05/24 13:07:44;;;;;;;6.53;1.20;;;;;;;;;;5053029;28;20037;-74
2022/05/24 13:10:22;;;;;;;5.13;1.35;;;;;;;;;;5051858;28;20091;-74
2022/05/24 13:12:53;;;;;;;4.05;0.95;;;;;;;;;;5051677;28;20077;-74
2022/05/24 13:15:21;;;;;;;5.20;1.10;;;;;;;;;;5051181;28;20150;-74
2022/05/24 13:17:48;;;;;;;4.22;0.88;;;;;;;;;;5053181;28;20083;-74
2022/05/24 13:20:17;;;;;;;4.88;0.85;;;;;;;;;;5052549;28;20032;-74
2022/05/24 13:22:43;;;;;;;3.15;1.10;;;;;;;;;;5051174;28;20032;-74
2022/05/24 13:25:14;;;;;;;4.82;0.93;;;;;;;;;;5051845;28;20091;-74
2022/05/24 13:27:59;;;;;;;4.18;0.90;;;;;;;;;;5051056;28;20446;-74
2022/05/24 13:33:47;;;;;;;2.15;0.98;;;;;;;;;;5047260;28;20147;-74
2022/05/24 13:36:18;;;;;;;6.40;2.25;;;;;;;;;;5048093;28;20029;-74
2022/05/24 13:38:44;;;;;;;5.93;0.90;;;;;;;;;;5047045;28;20114;-74
2022/05/24 13:41:11;;;;;;;5.03;1.27;;;;;;;;;;5051568;28;20033;-74
2022/05/24 13:43:39;;;;;;;3.05;1.00;;;;;;;;;;5051038;28;20025;-74
2022/05/24 13:46:23;;;;;;;4.03;1.08;;;;;;;;;;5055327;28;20041;-74
2022/05/24 13:48:54;;;;;;;6.35;1.20;;;;;;;;;;5055160;28;20414;-74
2022/05/24 13:51:27;;;;;;;5.15;1.05;;;;;;;;;;5054214;28;20509;-74
2022/05/24 13:53:54;;;;;;;4.75;0.90;;;;;;;;;;5055618;28;20025;-74
2022/05/24 13:56:22;;;;;;;2.80;0.93;;;;;;;;;;5056838;28;20017;-74
2022/05/24 13:58:51;;;;;;;5.57;1.02;;;;;;;;;;5056329;28;20091;-74
2022/05/24 14:01:25;;;;;;;3.58;1.20;;;;;;;;;;5055531;28;20103;-74
2022/05/24 14:04:13;;;;;;;4.50;1.10;;;;;;;;;;5054940;28;20086;-74
2022/05/24 14:06:40;;;;;;;7.65;2.13;;;;;;;;;;5053059;28;20028;-74
2022/05/24 14:09:07;;;;;;;3.22;1.17;;;;;;;;;;5054377;28;20385;-74
2022/05/24 14:11:35;;;;;;;4.25;1.30;;;;;;;;;;5055818;28;20436;-73
2022/05/24 14:14:01;;;;;;;3.08;0.90;;;;;;;;;;5062319;28;20025;-74
2022/05/24 14:16:30;;;;;;;5.03;1.00;;;;;;;;;;5055447;28;20025;-74
2022/05/24 14:18:56;;;;;;;4.95;1.10;;;;;;;;;;5055671;28;20025;-75
2022/05/24 14:21:25;;;;;;;2.85;1.00;;;;;;;;;;5053802;28;20037;-75
2022/05/24 14:23:51;;;;;;;4.45;1.10;;;;;;;;;;5055290;28;20013;-76
2022/05/24 14:26:17;;;;;;;10.18;1.58;;;;;;;;;;5051258;28;20032;-76
2022/05/24 14:28:43;;;;;;;3.55;0.90;;;;;;;;;;5047150;28;20033;-76
2022/05/24 14:31:12;;;;;;;8.10;1.00;;;;;;;;;;5050491;28;20037;-76
2022/05/24 14:33:38;;;;;;;5.47;1.20;;;;;;;;;;5051085;28;20029;-76
2022/05/24 14:36:05;;;;;;;5.38;1.02;;;;;;;;;;5050716;28;20029;-76
2022/05/24 14:38:32;;;;;;;6.40;1.33;;;;;;;;;;5049186;28;20033;-77
2022/05/24 14:41:16;;;;;;;4.57;0.90;;;;;;;;;;5050054;28;20029;-76
2022/05/24 14:43:44;;;;;;;5.10;1.00;;;;;;;;;;5049236;28;20021;-76
2022/05/24 14:46:10;;;;;;;4.35;1.48;;;;;;;;;;5050251;28;20037;-76
2022/05/24 14:48:37;;;;;;;4.85;1.00;;;;;;;;;;5050256;28;20498;-75
2022/05/24 14:51:04;;;;;;;6.35;1.20;;;;;;;;;;5051164;28;20056;-74
2022/05/24 14:53:32;;;;;;;14.75;2.83;;;;;;;;;;5050700;28;20175;-73
2022/05/24 14:55:58;;;;;;;9.88;2.17;;;;;;;;;;5046707;28;20024;-75
2022/05/24 14:58:25;;;;;;;9.82;1.50;;;;;;;;;;5048498;28;20033;-74
2022/05/24 15:00:51;;;;;;;10.75;2.10;;;;;;;;;;5049309;28;20017;-74
2022/05/24 15:03:17;;;;;;;6.03;1.42;;;;;;;;;;5051787;28;20033;-75
2022/05/24 15:05:43;;;;;;;5.22;1.40;;;;;;;;;;5049149;28;20021;-74
2022/05/24 15:16:24;;;;;;;8.25;2.33;;;;;;;;;;5049528;28;20039;-73
2022/05/24 15:18:50;;;;;;;9.20;1.40;;;;;;;;;;5050631;28;20033;-74
2022/05/24 15:21:18;;;;;;;7.03;1.60;;;;;;;;;;5052390;28;20036;-74
2022/05/24 15:23:45;;;;;;;3.88;1.45;;;;;;;;;;5047766;28;20025;-74
2022/05/24 15:26:13;;;;;;;6.75;1.77;;;;;;;;;;5053540;28;20037;-75
2022/05/24 15:28:41;;;;;;;3.33;1.40;;;;;;;;;;5049948;28;20037;-75
2022/05/24 15:31:08;;;;;;;6.05;2.13;;;;;;;;;;5048483;28;20036;-75
2022/05/24 15:33:34;;;;;;;6.55;2.80;;;;;;;;;;5051493;28;20029;-75
2022/05/24 15:36:00;;;;;;;8.50;2.85;;;;;;;;;;5049210;28;20032;-74
2022/05/24 15:38:26;;;;;;;6.75;2.10;;;;;;;;;;5049906;28;20124;-75
2022/05/24 15:40:53;;;;;;;8.05;1.73;;;;;;;;;;5048433;28;20029;-74
2022/05/24 15:43:19;;;;;;;7.75;1.40;;;;;;;;;;5049172;28;20024;-75
2022/05/24 15:45:46;;;;;;;4.85;1.33;;;;;;;;;;5049919;28;20123;-74
2022/05/24 15:48:13;;;;;;;3.83;1.15;;;;;;;;;;5049930;28;20045;-74
2022/05/24 15:50:41;;;;;;;4.40;1.33;;;;;;;;;;5047641;28;20053;-75